Time,TemperatureF,DewpointF,PressureIn,WindDirection,WindDirectionDegrees,WindSpeedMPH,WindSpeedGustMPH,Humidity,HourlyPrecipIn,Conditions,Clouds,dailyrainin,SoftwareType,DateUTC
2013-06-10 00:20:00,58.0,34.0,-100.00,North,-999,0.0,0.0,40,-99.99,,,-99.99,,2013-06-10 04:20:00,
2013-06-10 01:00:00,57.0,33.0,-100.00,North,-999,0.0,2.0,40,-99.99,,,-99.99,,2013-06-10 05:00:00,
2013-06-10 01:02:00,58.0,34.0,-100.00,North,-999,0.0,0.0,40,-99.99,,,-99.99,,2013-06-10 05:02:00,
2013-06-10 01:12:00,58.0,34.0,-100.00,North,-999,0.0,0.0,40,-99.99,,,-99.99,,2013-06-10 05:12:00,
2013-06-10 05:02:00,51.0,39.0,-100.00,North,-999,1.0,1.0,63,-99.99,,,-99.99,,2013-06-10 09:02:00,
2013-06-10 08:02:00,46.0,42.0,-100.00,North,-999,1.0,3.0,85,-99.99,,,-99.99,,2013-06-10 12:02:00,
2013-06-10 08:20:00,45.0,42.0,-100.00,North,-999,1.0,2.0,89,-99.99,,,-99.99,,2013-06-10 12:20:00,
2013-06-10 09:02:00,45.0,42.0,-100.00,North,-999,1.0,2.0,89,-99.99,,,-99.99,,2013-06-10 13:02:00,
2013-06-10 09:12:00,45.0,42.0,-100.00,North,-999,1.0,2.0,89,-99.99,,,-99.99,,2013-06-10 13:12:00,
2013-06-10 09:20:00,48.0,42.0,-100.00,North,-999,3.0,5.0,79,-99.99,,,-99.99,,2013-06-10 13:20:00,
2013-06-10 10:02:00,48.0,42.0,-100.00,North,-999,3.0,5.0,79,-99.99,,,-99.99,,2013-06-10 14:02:00,
2013-06-10 10:12:00,48.0,42.0,-100.00,North,-999,3.0,5.0,79,-99.99,,,-99.99,,2013-06-10 14:12:00,
2013-06-10 10:20:00,53.0,42.0,-100.00,North,-999,3.0,7.0,66,-99.99,,,-99.99,,2013-06-10 14:20:00,
2013-06-10 11:00:00,57.0,43.0,-100.00,North,-999,3.0,7.0,59,-99.99,,,-99.99,,2013-06-10 15:00:00,
2013-06-10 11:02:00,53.0,42.0,-100.00,North,-999,3.0,7.0,66,-99.99,,,-99.99,,2013-06-10 15:02:00,
2013-06-10 11:12:00,53.0,42.0,-100.00,North,-999,3.0,7.0,66,-99.99,,,-99.99,,2013-06-10 15:12:00,
2013-06-10 16:00:00,73.0,45.0,-100.00,North,-999,5.0,8.0,36,-99.99,,,-99.99,,2013-06-10 20:00:00,
2013-06-10 17:00:00,74.0,45.0,-100.00,North,-999,7.0,12.0,35,-99.99,,,-99.99,,2013-06-10 21:00:00,
2013-06-10 19:00:00,73.0,43.0,-100.00,North,-999,2.0,9.0,33,-99.99,,,-99.99,,2013-06-10 23:00:00,
2013-06-10 19:02:00,74.0,44.0,-100.00,North,-999,2.0,9.0,34,-99.99,,,-99.99,,2013-06-10 23:02:00,
2013-06-10 20:00:00,73.0,43.0,-100.00,North,-999,1.0,6.0,33,-99.99,,,-99.99,,2013-06-11 00:00:00,
2013-06-10 21:00:00,72.0,43.0,-100.00,North,-999,1.0,6.0,35,-99.99,,,-99.99,,2013-06-11 01:00:00,
2013-06-10 22:00:00,69.0,43.0,-100.00,North,-999,3.0,5.0,38,-99.99,,,-99.99,,2013-06-11 02:00:00,
2013-06-10 23:00:00,65.0,44.0,-100.00,North,-999,0.0,0.0,46,-99.99,,,-99.99,,2013-06-11 03:00:00,